sensor_id;sensor_type;location;lat;lon;timestamp;P1;durP1;ratioP1;P2;durP2;ratioP2
8407;SDS011;4241;48.452;9.216;2023-06-04T00:00:41;463.47;;;174.23;;
8407;SDS011;4241;48.452;9.216;2023-06-04T00:03:08;464.60;;;175.03;;
8407;SDS011;4241;48.452;9.216;2023-06-04T00:05:35;469.23;;;180.30;;
8407;SDS011;4241;48.452;9.216;2023-06-04T00:08:01;462.13;;;171.77;;
8407;SDS011;4241;48.452;9.216;2023-06-04T00:10:28;463.23;;;174.00;;
8407;SDS011;4241;48.452;9.216;2023-06-04T00:12:57;461.47;;;170.37;;
8407;SDS011;4241;48.452;9.216;2023-06-04T00:15:24;469.90;;;180.77;;
8407;SDS011;4241;48.452;9.216;2023-06-04T00:17:51;461.37;;;170.83;;
8407;SDS011;4241;48.452;9.216;2023-06-04T00:20:18;463.73;;;172.03;;
8407;SDS011;4241;48.452;9.216;2023-06-04T00:22:45;463.20;;;173.37;;
8407;SDS011;4241;48.452;9.216;2023-06-04T00:25:12;462.53;;;172.60;;
8407;SDS011;4241;48.452;9.216;2023-06-04T00:27:38;461.43;;;170.40;;
8407;SDS011;4241;48.452;9.216;2023-06-04T00:30:07;462.17;;;170.20;;
8407;SDS011;4241;48.452;9.216;2023-06-04T00:32:35;465.27;;;174.90;;
8407;SDS011;4241;48.452;9.216;2023-06-04T00:35:02;461.73;;;168.50;;
8407;SDS011;4241;48.452;9.216;2023-06-04T00:37:29;459.63;;;168.43;;
8407;SDS011;4241;48.452;9.216;2023-06-04T00:39:56;460.03;;;170.00;;
8407;SDS011;4241;48.452;9.216;2023-06-04T00:42:22;458.87;;;166.03;;
8407;SDS011;4241;48.452;9.216;2023-06-04T00:44:49;457.93;;;167.53;;
8407;SDS011;4241;48.452;9.216;2023-06-04T00:47:18;462.10;;;183.60;;
8407;SDS011;4241;48.452;9.216;2023-06-04T00:49:46;459.07;;;169.00;;
8407;SDS011;4241;48.452;9.216;2023-06-04T00:52:13;462.43;;;174.87;;
8407;SDS011;4241;48.452;9.216;2023-06-04T00:54:42;461.87;;;169.93;;
8407;SDS011;4241;48.452;9.216;2023-06-04T00:57:09;462.03;;;167.90;;
8407;SDS011;4241;48.452;9.216;2023-06-04T00:59:36;461.03;;;167.80;;
8407;SDS011;4241;48.452;9.216;2023-06-04T01:02:06;462.30;;;168.10;;
8407;SDS011;4241;48.452;9.216;2023-06-04T01:04:41;461.77;;;168.70;;
8407;SDS011;4241;48.452;9.216;2023-06-04T01:07:11;460.33;;;166.07;;
8407;SDS011;4241;48.452;9.216;2023-06-04T01:09:40;463.00;;;171.80;;
8407;SDS011;4241;48.452;9.216;2023-06-04T01:12:08;461.40;;;170.47;;
8407;SDS011;4241;48.452;9.216;2023-06-04T01:14:36;460.13;;;167.03;;
8407;SDS011;4241;48.452;9.216;2023-06-04T01:17:05;461.53;;;169.60;;
8407;SDS011;4241;48.452;9.216;2023-06-04T01:19:48;460.37;;;167.13;;
8407;SDS011;4241;48.452;9.216;2023-06-04T01:22:32;464.10;;;172.00;;
8407;SDS011;4241;48.452;9.216;2023-06-04T01:25:02;461.20;;;168.23;;
8407;SDS011;4241;48.452;9.216;2023-06-04T01:27:31;460.23;;;167.30;;
8407;SDS011;4241;48.452;9.216;2023-06-04T01:30:00;459.23;;;164.67;;
8407;SDS011;4241;48.452;9.216;2023-06-04T01:32:28;461.10;;;167.50;;
8407;SDS011;4241;48.452;9.216;2023-06-04T01:34:58;460.67;;;173.57;;
8407;SDS011;4241;48.452;9.216;2023-06-04T01:37:25;459.50;;;165.70;;
8407;SDS011;4241;48.452;9.216;2023-06-04T01:39:52;460.90;;;167.90;;
8407;SDS011;4241;48.452;9.216;2023-06-04T01:42:19;460.10;;;171.53;;
8407;SDS011;4241;48.452;9.216;2023-06-04T01:44:46;457.47;;;162.63;;
8407;SDS011;4241;48.452;9.216;2023-06-04T01:47:13;457.83;;;163.83;;
8407;SDS011;4241;48.452;9.216;2023-06-04T01:49:39;455.70;;;158.83;;
8407;SDS011;4241;48.452;9.216;2023-06-04T01:52:08;460.87;;;166.43;;
8407;SDS011;4241;48.452;9.216;2023-06-04T01:54:36;457.80;;;161.33;;
8407;SDS011;4241;48.452;9.216;2023-06-04T01:57:03;459.23;;;163.40;;
8407;SDS011;4241;48.452;9.216;2023-06-04T01:59:31;458.00;;;162.50;;
8407;SDS011;4241;48.452;9.216;2023-06-04T02:01:58;457.43;;;160.40;;
8407;SDS011;4241;48.452;9.216;2023-06-04T02:04:26;457.23;;;160.10;;
8407;SDS011;4241;48.452;9.216;2023-06-04T02:06:53;457.03;;;159.53;;
8407;SDS011;4241;48.452;9.216;2023-06-04T02:09:23;456.77;;;159.53;;
8407;SDS011;4241;48.452;9.216;2023-06-04T02:11:49;456.80;;;158.70;;
8407;SDS011;4241;48.452;9.216;2023-06-04T02:14:16;456.33;;;159.17;;
8407;SDS011;4241;48.452;9.216;2023-06-04T02:16:43;457.63;;;160.50;;
8407;SDS011;4241;48.452;9.216;2023-06-04T02:19:10;455.73;;;158.43;;
8407;SDS011;4241;48.452;9.216;2023-06-04T02:21:37;456.90;;;159.20;;
8407;SDS011;4241;48.452;9.216;2023-06-04T02:24:04;454.40;;;156.13;;
8407;SDS011;4241;48.452;9.216;2023-06-04T02:26:33;456.27;;;156.27;;
8407;SDS011;4241;48.452;9.216;2023-06-04T02:28:59;455.10;;;155.93;;
8407;SDS011;4241;48.452;9.216;2023-06-04T02:31:27;453.63;;;154.50;;
8407;SDS011;4241;48.452;9.216;2023-06-04T02:33:55;457.03;;;157.50;;
8407;SDS011;4241;48.452;9.216;2023-06-04T02:36:21;456.80;;;158.47;;
8407;SDS011;4241;48.452;9.216;2023-06-04T02:38:48;455.33;;;156.57;;
8407;SDS011;4241;48.452;9.216;2023-06-04T02:41:16;456.07;;;157.13;;
8407;SDS011;4241;48.452;9.216;2023-06-04T02:43:44;454.13;;;153.70;;
8407;SDS011;4241;48.452;9.216;2023-06-04T02:46:11;451.93;;;150.27;;
8407;SDS011;4241;48.452;9.216;2023-06-04T02:48:37;452.10;;;151.83;;
8407;SDS011;4241;48.452;9.216;2023-06-04T02:51:04;452.63;;;151.10;;
8407;SDS011;4241;48.452;9.216;2023-06-04T02:53:35;453.27;;;153.20;;
8407;SDS011;4241;48.452;9.216;2023-06-04T02:56:01;456.40;;;156.03;;
8407;SDS011;4241;48.452;9.216;2023-06-04T02:58:28;453.67;;;152.77;;
8407;SDS011;4241;48.452;9.216;2023-06-04T03:00:57;456.63;;;156.13;;
8407;SDS011;4241;48.452;9.216;2023-06-04T03:03:24;452.80;;;152.27;;
8407;SDS011;4241;48.452;9.216;2023-06-04T03:05:52;453.53;;;150.93;;
8407;SDS011;4241;48.452;9.216;2023-06-04T03:08:19;450.13;;;147.27;;
8407;SDS011;4241;48.452;9.216;2023-06-04T03:10:46;449.70;;;147.90;;
8407;SDS011;4241;48.452;9.216;2023-06-04T03:13:13;450.83;;;147.87;;
8407;SDS011;4241;48.452;9.216;2023-06-04T03:15:40;450.77;;;149.47;;
8407;SDS011;4241;48.452;9.216;2023-06-04T03:18:08;450.87;;;150.93;;
8407;SDS011;4241;48.452;9.216;2023-06-04T03:20:35;454.90;;;155.57;;
8407;SDS011;4241;48.452;9.216;2023-06-04T03:23:03;451.70;;;151.53;;
8407;SDS011;4241;48.452;9.216;2023-06-04T03:25:30;459.77;;;159.80;;
8407;SDS011;4241;48.452;9.216;2023-06-04T03:27:56;451.07;;;148.53;;
8407;SDS011;4241;48.452;9.216;2023-06-04T03:30:23;452.40;;;152.43;;
8407;SDS011;4241;48.452;9.216;2023-06-04T03:32:50;451.83;;;150.33;;
8407;SDS011;4241;48.452;9.216;2023-06-04T03:35:18;454.47;;;152.13;;
8407;SDS011;4241;48.452;9.216;2023-06-04T03:37:45;455.77;;;156.20;;
8407;SDS011;4241;48.452;9.216;2023-06-04T03:40:12;454.10;;;153.97;;
8407;SDS011;4241;48.452;9.216;2023-06-04T03:42:39;452.03;;;152.03;;
8407;SDS011;4241;48.452;9.216;2023-06-04T03:45:07;453.00;;;151.33;;
8407;SDS011;4241;48.452;9.216;2023-06-04T03:47:35;452.57;;;151.73;;
8407;SDS011;4241;48.452;9.216;2023-06-04T03:50:02;456.57;;;155.80;;
8407;SDS011;4241;48.452;9.216;2023-06-04T03:52:30;451.20;;;149.33;;
8407;SDS011;4241;48.452;9.216;2023-06-04T03:54:57;450.87;;;150.00;;
8407;SDS011;4241;48.452;9.216;2023-06-04T03:57:27;451.20;;;150.10;;
8407;SDS011;4241;48.452;9.216;2023-06-04T03:59:54;450.33;;;150.17;;
8407;SDS011;4241;48.452;9.216;2023-06-04T04:02:20;454.10;;;152.53;;
8407;SDS011;4241;48.452;9.216;2023-06-04T04:04:47;448.37;;;145.23;;
8407;SDS011;4241;48.452;9.216;2023-06-04T04:07:14;450.13;;;148.77;;
8407;SDS011;4241;48.452;9.216;2023-06-04T04:09:43;449.60;;;147.77;;
8407;SDS011;4241;48.452;9.216;2023-06-04T04:12:09;449.13;;;145.87;;
8407;SDS011;4241;48.452;9.216;2023-06-04T04:14:36;449.97;;;148.20;;
8407;SDS011;4241;48.452;9.216;2023-06-04T04:17:03;449.07;;;147.33;;
8407;SDS011;4241;48.452;9.216;2023-06-04T04:19:30;448.87;;;148.17;;
8407;SDS011;4241;48.452;9.216;2023-06-04T04:21:58;449.63;;;149.33;;
8407;SDS011;4241;48.452;9.216;2023-06-04T04:24:25;447.57;;;146.47;;
8407;SDS011;4241;48.452;9.216;2023-06-04T04:26:54;448.53;;;147.70;;
8407;SDS011;4241;48.452;9.216;2023-06-04T04:29:24;446.27;;;143.93;;
8407;SDS011;4241;48.452;9.216;2023-06-04T04:31:51;453.00;;;149.93;;
8407;SDS011;4241;48.452;9.216;2023-06-04T04:34:18;450.10;;;148.57;;
8407;SDS011;4241;48.452;9.216;2023-06-04T04:36:46;447.13;;;146.50;;
8407;SDS011;4241;48.452;9.216;2023-06-04T04:39:17;449.47;;;147.63;;
8407;SDS011;4241;48.452;9.216;2023-06-04T04:41:44;452.90;;;150.67;;
8407;SDS011;4241;48.452;9.216;2023-06-04T04:44:19;447.60;;;146.60;;
8407;SDS011;4241;48.452;9.216;2023-06-04T04:46:47;446.90;;;145.10;;
8407;SDS011;4241;48.452;9.216;2023-06-04T04:49:14;447.63;;;147.03;;
8407;SDS011;4241;48.452;9.216;2023-06-04T04:51:41;448.27;;;146.90;;
8407;SDS011;4241;48.452;9.216;2023-06-04T04:54:08;449.50;;;149.40;;
8407;SDS011;4241;48.452;9.216;2023-06-04T04:56:35;450.27;;;150.27;;
8407;SDS011;4241;48.452;9.216;2023-06-04T04:59:01;449.27;;;148.90;;
8407;SDS011;4241;48.452;9.216;2023-06-04T05:01:30;449.03;;;149.23;;
8407;SDS011;4241;48.452;9.216;2023-06-04T05:03:56;450.70;;;149.30;;
8407;SDS011;4241;48.452;9.216;2023-06-04T05:06:23;449.20;;;147.97;;
8407;SDS011;4241;48.452;9.216;2023-06-04T05:08:50;447.73;;;147.67;;
8407;SDS011;4241;48.452;9.216;2023-06-04T05:11:17;445.40;;;144.50;;
8407;SDS011;4241;48.452;9.216;2023-06-04T05:13:44;450.73;;;155.23;;
8407;SDS011;4241;48.452;9.216;2023-06-04T05:16:11;451.63;;;151.53;;
8407;SDS011;4241;48.452;9.216;2023-06-04T05:18:39;451.20;;;150.53;;
8407;SDS011;4241;48.452;9.216;2023-06-04T05:21:09;449.17;;;153.20;;
8407;SDS011;4241;48.452;9.216;2023-06-04T05:23:37;448.73;;;148.17;;
8407;SDS011;4241;48.452;9.216;2023-06-04T05:26:04;451.60;;;152.20;;
8407;SDS011;4241;48.452;9.216;2023-06-04T05:28:31;452.93;;;153.67;;
8407;SDS011;4241;48.452;9.216;2023-06-04T05:30:59;450.77;;;151.63;;
8407;SDS011;4241;48.452;9.216;2023-06-04T05:33:25;451.70;;;153.83;;
8407;SDS011;4241;48.452;9.216;2023-06-04T05:35:54;451.60;;;152.67;;
8407;SDS011;4241;48.452;9.216;2023-06-04T05:38:22;451.63;;;150.67;;
8407;SDS011;4241;48.452;9.216;2023-06-04T05:40:50;451.83;;;152.00;;
8407;SDS011;4241;48.452;9.216;2023-06-04T05:43:17;454.00;;;155.43;;
8407;SDS011;4241;48.452;9.216;2023-06-04T05:45:44;454.27;;;154.63;;
8407;SDS011;4241;48.452;9.216;2023-06-04T05:48:11;452.33;;;152.63;;
8407;SDS011;4241;48.452;9.216;2023-06-04T05:50:38;454.90;;;156.87;;
8407;SDS011;4241;48.452;9.216;2023-06-04T05:53:06;455.17;;;158.50;;
8407;SDS011;4241;48.452;9.216;2023-06-04T05:55:33;463.43;;;169.20;;
8407;SDS011;4241;48.452;9.216;2023-06-04T05:58:00;456.53;;;160.70;;
8407;SDS011;4241;48.452;9.216;2023-06-04T06:00:27;457.80;;;164.10;;
8407;SDS011;4241;48.452;9.216;2023-06-04T06:02:54;459.17;;;164.17;;
8407;SDS011;4241;48.452;9.216;2023-06-04T06:05:21;461.60;;;168.60;;
8407;SDS011;4241;48.452;9.216;2023-06-04T06:07:48;457.83;;;164.50;;
8407;SDS011;4241;48.452;9.216;2023-06-04T06:10:16;460.73;;;168.73;;
8407;SDS011;4241;48.452;9.216;2023-06-04T06:12:43;460.43;;;169.13;;
8407;SDS011;4241;48.452;9.216;2023-06-04T06:15:10;461.30;;;171.03;;
8407;SDS011;4241;48.452;9.216;2023-06-04T06:17:37;460.43;;;167.97;;
8407;SDS011;4241;48.452;9.216;2023-06-04T06:20:04;462.10;;;174.00;;
8407;SDS011;4241;48.452;9.216;2023-06-04T06:22:32;463.77;;;178.40;;
8407;SDS011;4241;48.452;9.216;2023-06-04T06:25:00;468.70;;;184.17;;
8407;SDS011;4241;48.452;9.216;2023-06-04T06:27:28;463.13;;;178.63;;
8407;SDS011;4241;48.452;9.216;2023-06-04T06:29:56;465.37;;;183.47;;
8407;SDS011;4241;48.452;9.216;2023-06-04T06:32:23;464.33;;;182.30;;
8407;SDS011;4241;48.452;9.216;2023-06-04T06:34:49;466.60;;;188.50;;
8407;SDS011;4241;48.452;9.216;2023-06-04T06:37:16;468.00;;;188.47;;
8407;SDS011;4241;48.452;9.216;2023-06-04T06:39:45;467.10;;;187.20;;
8407;SDS011;4241;48.452;9.216;2023-06-04T06:42:11;468.70;;;190.77;;
8407;SDS011;4241;48.452;9.216;2023-06-04T06:44:40;468.23;;;192.53;;
8407;SDS011;4241;48.452;9.216;2023-06-04T06:47:06;469.43;;;195.10;;
8407;SDS011;4241;48.452;9.216;2023-06-04T06:49:33;470.50;;;198.37;;
8407;SDS011;4241;48.452;9.216;2023-06-04T06:52:00;470.80;;;200.07;;
8407;SDS011;4241;48.452;9.216;2023-06-04T06:54:27;471.47;;;202.50;;
8407;SDS011;4241;48.452;9.216;2023-06-04T06:56:54;472.47;;;204.30;;
8407;SDS011;4241;48.452;9.216;2023-06-04T06:59:21;473.63;;;206.80;;
8407;SDS011;4241;48.452;9.216;2023-06-04T07:01:49;473.90;;;209.33;;
8407;SDS011;4241;48.452;9.216;2023-06-04T07:04:16;473.27;;;208.20;;
8407;SDS011;4241;48.452;9.216;2023-06-04T07:06:42;474.87;;;212.93;;
8407;SDS011;4241;48.452;9.216;2023-06-04T07:09:09;476.37;;;216.60;;
8407;SDS011;4241;48.452;9.216;2023-06-04T07:11:36;478.83;;;221.27;;
8407;SDS011;4241;48.452;9.216;2023-06-04T07:14:03;476.47;;;219.97;;
8407;SDS011;4241;48.452;9.216;2023-06-04T07:16:30;478.43;;;224.20;;
8407;SDS011;4241;48.452;9.216;2023-06-04T07:18:58;478.53;;;223.60;;
8407;SDS011;4241;48.452;9.216;2023-06-04T07:21:26;478.47;;;227.10;;
8407;SDS011;4241;48.452;9.216;2023-06-04T07:23:53;477.83;;;225.60;;
8407;SDS011;4241;48.452;9.216;2023-06-04T07:26:20;480.17;;;230.60;;
8407;SDS011;4241;48.452;9.216;2023-06-04T07:28:47;478.50;;;230.97;;
8407;SDS011;4241;48.452;9.216;2023-06-04T07:31:14;480.07;;;233.50;;
8407;SDS011;4241;48.452;9.216;2023-06-04T07:33:42;479.17;;;230.50;;
8407;SDS011;4241;48.452;9.216;2023-06-04T07:36:10;479.33;;;233.23;;
8407;SDS011;4241;48.452;9.216;2023-06-04T07:38:38;480.33;;;235.70;;
8407;SDS011;4241;48.452;9.216;2023-06-04T07:41:05;481.57;;;240.30;;
8407;SDS011;4241;48.452;9.216;2023-06-04T07:43:32;478.97;;;233.67;;
8407;SDS011;4241;48.452;9.216;2023-06-04T07:45:59;482.63;;;239.63;;
8407;SDS011;4241;48.452;9.216;2023-06-04T07:48:26;482.43;;;242.57;;
8407;SDS011;4241;48.452;9.216;2023-06-04T07:50:55;483.10;;;244.57;;
8407;SDS011;4241;48.452;9.216;2023-06-04T07:53:24;484.17;;;250.27;;
8407;SDS011;4241;48.452;9.216;2023-06-04T07:55:51;483.70;;;248.03;;
8407;SDS011;4241;48.452;9.216;2023-06-04T07:58:18;481.37;;;247.17;;
8407;SDS011;4241;48.452;9.216;2023-06-04T08:00:45;485.83;;;254.43;;
8407;SDS011;4241;48.452;9.216;2023-06-04T08:03:12;485.63;;;256.93;;
8407;SDS011;4241;48.452;9.216;2023-06-04T08:05:40;487.60;;;260.20;;
8407;SDS011;4241;48.452;9.216;2023-06-04T08:08:07;485.60;;;256.87;;
8407;SDS011;4241;48.452;9.216;2023-06-04T08:10:35;487.00;;;262.40;;
8407;SDS011;4241;48.452;9.216;2023-06-04T08:13:02;488.23;;;265.23;;
8407;SDS011;4241;48.452;9.216;2023-06-04T08:15:29;492.13;;;266.73;;
8407;SDS011;4241;48.452;9.216;2023-06-04T08:17:55;488.83;;;269.77;;
8407;SDS011;4241;48.452;9.216;2023-06-04T08:20:23;487.90;;;268.73;;
8407;SDS011;4241;48.452;9.216;2023-06-04T08:22:50;489.77;;;274.20;;
8407;SDS011;4241;48.452;9.216;2023-06-04T08:25:17;489.50;;;276.13;;
8407;SDS011;4241;48.452;9.216;2023-06-04T08:27:45;490.13;;;275.67;;
8407;SDS011;4241;48.452;9.216;2023-06-04T08:30:12;489.27;;;276.10;;
8407;SDS011;4241;48.452;9.216;2023-06-04T08:32:39;490.40;;;279.20;;
8407;SDS011;4241;48.452;9.216;2023-06-04T08:35:06;494.77;;;282.97;;
8407;SDS011;4241;48.452;9.216;2023-06-04T08:37:34;490.60;;;280.70;;
8407;SDS011;4241;48.452;9.216;2023-06-04T08:40:01;492.20;;;284.40;;
8407;SDS011;4241;48.452;9.216;2023-06-04T08:42:30;492.17;;;284.63;;
8407;SDS011;4241;48.452;9.216;2023-06-04T08:45:01;493.37;;;288.87;;
8407;SDS011;4241;48.452;9.216;2023-06-04T08:47:29;493.27;;;288.43;;
8407;SDS011;4241;48.452;9.216;2023-06-04T08:49:59;494.77;;;292.33;;
8407;SDS011;4241;48.452;9.216;2023-06-04T08:52:26;491.57;;;290.47;;
8407;SDS011;4241;48.452;9.216;2023-06-04T08:54:54;496.00;;;298.23;;
8407;SDS011;4241;48.452;9.216;2023-06-04T08:57:21;495.20;;;301.03;;
8407;SDS011;4241;48.452;9.216;2023-06-04T08:59:48;495.37;;;301.10;;
8407;SDS011;4241;48.452;9.216;2023-06-04T09:02:18;495.67;;;304.53;;
8407;SDS011;4241;48.452;9.216;2023-06-04T09:04:45;495.57;;;309.03;;
8407;SDS011;4241;48.452;9.216;2023-06-04T09:07:12;497.63;;;312.73;;
8407;SDS011;4241;48.452;9.216;2023-06-04T09:09:40;497.27;;;314.37;;
8407;SDS011;4241;48.452;9.216;2023-06-04T09:12:09;499.60;;;320.17;;
8407;SDS011;4241;48.452;9.216;2023-06-04T09:14:37;497.27;;;315.67;;
8407;SDS011;4241;48.452;9.216;2023-06-04T09:17:04;498.23;;;318.93;;
8407;SDS011;4241;48.452;9.216;2023-06-04T09:19:32;495.57;;;313.37;;
8407;SDS011;4241;48.452;9.216;2023-06-04T09:22:00;496.27;;;314.67;;
8407;SDS011;4241;48.452;9.216;2023-06-04T09:24:38;495.30;;;312.63;;
8407;SDS011;4241;48.452;9.216;2023-06-04T09:27:09;497.83;;;322.67;;
8407;SDS011;4241;48.452;9.216;2023-06-04T09:29:37;496.03;;;314.87;;
8407;SDS011;4241;48.452;9.216;2023-06-04T09:32:04;497.13;;;318.83;;
8407;SDS011;4241;48.452;9.216;2023-06-04T09:34:32;499.03;;;322.17;;
8407;SDS011;4241;48.452;9.216;2023-06-04T09:37:00;495.70;;;314.47;;
8407;SDS011;4241;48.452;9.216;2023-06-04T09:39:27;498.00;;;321.40;;
8407;SDS011;4241;48.452;9.216;2023-06-04T09:41:57;499.90;;;330.20;;
8407;SDS011;4241;48.452;9.216;2023-06-04T09:44:25;498.03;;;324.43;;
8407;SDS011;4241;48.452;9.216;2023-06-04T09:46:55;497.90;;;326.80;;
8407;SDS011;4241;48.452;9.216;2023-06-04T09:49:22;500.83;;;331.87;;
8407;SDS011;4241;48.452;9.216;2023-06-04T09:51:50;500.57;;;333.33;;
8407;SDS011;4241;48.452;9.216;2023-06-04T09:54:17;500.43;;;335.83;;
8407;SDS011;4241;48.452;9.216;2023-06-04T09:56:44;504.13;;;342.17;;
8407;SDS011;4241;48.452;9.216;2023-06-04T09:59:11;500.17;;;339.03;;
8407;SDS011;4241;48.452;9.216;2023-06-04T10:01:40;501.13;;;341.23;;
8407;SDS011;4241;48.452;9.216;2023-06-04T10:04:08;501.53;;;337.67;;
8407;SDS011;4241;48.452;9.216;2023-06-04T10:06:37;502.57;;;340.67;;
8407;SDS011;4241;48.452;9.216;2023-06-04T10:09:07;499.00;;;329.27;;
8407;SDS011;4241;48.452;9.216;2023-06-04T10:11:35;498.60;;;325.50;;
8407;SDS011;4241;48.452;9.216;2023-06-04T10:14:07;499.07;;;319.70;;
8407;SDS011;4241;48.452;9.216;2023-06-04T10:16:38;498.70;;;314.67;;
8407;SDS011;4241;48.452;9.216;2023-06-04T10:19:07;495.87;;;310.90;;
8407;SDS011;4241;48.452;9.216;2023-06-04T10:21:34;496.37;;;308.87;;
8407;SDS011;4241;48.452;9.216;2023-06-04T10:24:01;500.97;;;316.90;;
8407;SDS011;4241;48.452;9.216;2023-06-04T10:26:29;495.03;;;312.07;;
8407;SDS011;4241;48.452;9.216;2023-06-04T10:28:58;494.63;;;310.37;;
8407;SDS011;4241;48.452;9.216;2023-06-04T10:31:27;496.03;;;313.07;;
8407;SDS011;4241;48.452;9.216;2023-06-04T10:33:54;496.87;;;309.77;;
8407;SDS011;4241;48.452;9.216;2023-06-04T10:36:22;493.47;;;302.13;;
8407;SDS011;4241;48.452;9.216;2023-06-04T10:38:50;495.47;;;304.60;;
8407;SDS011;4241;48.452;9.216;2023-06-04T10:41:17;494.37;;;303.57;;
8407;SDS011;4241;48.452;9.216;2023-06-04T10:43:47;495.30;;;305.20;;
8407;SDS011;4241;48.452;9.216;2023-06-04T10:46:15;496.57;;;312.97;;
8407;SDS011;4241;48.452;9.216;2023-06-04T10:48:47;498.20;;;319.93;;
8407;SDS011;4241;48.452;9.216;2023-06-04T10:51:15;497.63;;;325.00;;
8407;SDS011;4241;48.452;9.216;2023-06-04T10:53:42;497.73;;;323.07;;
8407;SDS011;4241;48.452;9.216;2023-06-04T10:56:09;498.53;;;325.23;;
8407;SDS011;4241;48.452;9.216;2023-06-04T10:58:36;496.93;;;326.10;;
8407;SDS011;4241;48.452;9.216;2023-06-04T11:01:04;498.10;;;324.83;;
8407;SDS011;4241;48.452;9.216;2023-06-04T11:03:34;498.53;;;330.60;;
8407;SDS011;4241;48.452;9.216;2023-06-04T11:06:02;497.97;;;327.67;;
8407;SDS011;4241;48.452;9.216;2023-06-04T11:08:40;501.00;;;335.60;;
8407;SDS011;4241;48.452;9.216;2023-06-04T11:11:10;502.50;;;337.63;;
8407;SDS011;4241;48.452;9.216;2023-06-04T11:13:37;500.17;;;333.97;;
8407;SDS011;4241;48.452;9.216;2023-06-04T11:16:13;499.30;;;335.03;;
8407;SDS011;4241;48.452;9.216;2023-06-04T11:18:41;498.03;;;326.87;;
8407;SDS011;4241;48.452;9.216;2023-06-04T11:21:08;498.27;;;327.20;;
8407;SDS011;4241;48.452;9.216;2023-06-04T11:23:36;499.80;;;329.97;;
8407;SDS011;4241;48.452;9.216;2023-06-04T11:26:04;498.47;;;333.53;;
8407;SDS011;4241;48.452;9.216;2023-06-04T11:28:30;500.23;;;340.37;;
8407;SDS011;4241;48.452;9.216;2023-06-04T11:30:58;500.83;;;341.37;;
8407;SDS011;4241;48.452;9.216;2023-06-04T11:33:29;502.17;;;348.57;;
8407;SDS011;4241;48.452;9.216;2023-06-04T11:35:55;504.80;;;353.73;;
8407;SDS011;4241;48.452;9.216;2023-06-04T11:38:22;502.10;;;350.63;;
8407;SDS011;4241;48.452;9.216;2023-06-04T11:40:56;501.03;;;345.40;;
8407;SDS011;4241;48.452;9.216;2023-06-04T11:43:24;500.60;;;341.63;;
8407;SDS011;4241;48.452;9.216;2023-06-04T11:45:51;501.93;;;340.50;;
8407;SDS011;4241;48.452;9.216;2023-06-04T11:48:18;500.67;;;334.87;;
8407;SDS011;4241;48.452;9.216;2023-06-04T11:50:47;502.70;;;339.13;;
8407;SDS011;4241;48.452;9.216;2023-06-04T11:53:14;499.83;;;339.30;;
8407;SDS011;4241;48.452;9.216;2023-06-04T11:55:40;503.00;;;347.40;;
8407;SDS011;4241;48.452;9.216;2023-06-04T11:58:08;502.53;;;355.23;;
8407;SDS011;4241;48.452;9.216;2023-06-04T12:00:35;504.93;;;364.87;;
8407;SDS011;4241;48.452;9.216;2023-06-04T12:03:02;505.80;;;365.17;;
8407;SDS011;4241;48.452;9.216;2023-06-04T12:05:30;512.87;;;372.60;;
8407;SDS011;4241;48.452;9.216;2023-06-04T12:08:05;504.47;;;362.13;;
8407;SDS011;4241;48.452;9.216;2023-06-04T12:10:36;506.93;;;362.10;;
8407;SDS011;4241;48.452;9.216;2023-06-04T12:13:04;504.93;;;353.63;;
8407;SDS011;4241;48.452;9.216;2023-06-04T12:15:31;506.10;;;354.97;;
8407;SDS011;4241;48.452;9.216;2023-06-04T12:17:58;501.60;;;347.03;;
8407;SDS011;4241;48.452;9.216;2023-06-04T12:20:34;500.37;;;343.70;;
8407;SDS011;4241;48.452;9.216;2023-06-04T12:23:02;501.97;;;348.53;;
8407;SDS011;4241;48.452;9.216;2023-06-04T12:25:31;504.17;;;356.27;;
8407;SDS011;4241;48.452;9.216;2023-06-04T12:27:59;502.27;;;355.50;;
8407;SDS011;4241;48.452;9.216;2023-06-04T12:30:36;504.23;;;360.13;;
8407;SDS011;4241;48.452;9.216;2023-06-04T12:33:03;503.00;;;361.27;;
8407;SDS011;4241;48.452;9.216;2023-06-04T12:35:30;510.47;;;373.20;;
8407;SDS011;4241;48.452;9.216;2023-06-04T12:37:57;506.47;;;366.97;;
8407;SDS011;4241;48.452;9.216;2023-06-04T12:40:26;503.77;;;361.03;;
8407;SDS011;4241;48.452;9.216;2023-06-04T12:42:53;502.47;;;359.80;;
8407;SDS011;4241;48.452;9.216;2023-06-04T12:45:20;507.73;;;367.40;;
8407;SDS011;4241;48.452;9.216;2023-06-04T12:47:46;506.93;;;370.90;;
8407;SDS011;4241;48.452;9.216;2023-06-04T12:50:13;504.60;;;368.57;;
8407;SDS011;4241;48.452;9.216;2023-06-04T12:52:40;504.30;;;367.13;;
8407;SDS011;4241;48.452;9.216;2023-06-04T12:55:07;507.27;;;374.27;;
8407;SDS011;4241;48.452;9.216;2023-06-04T12:57:36;506.20;;;374.27;;
8407;SDS011;4241;48.452;9.216;2023-06-04T13:00:03;508.43;;;379.07;;
8407;SDS011;4241;48.452;9.216;2023-06-04T13:02:32;505.53;;;375.07;;
8407;SDS011;4241;48.452;9.216;2023-06-04T13:04:59;506.87;;;374.73;;
8407;SDS011;4241;48.452;9.216;2023-06-04T13:07:25;504.87;;;366.67;;
8407;SDS011;4241;48.452;9.216;2023-06-04T13:09:52;503.40;;;361.50;;
8407;SDS011;4241;48.452;9.216;2023-06-04T13:12:19;502.87;;;355.67;;
8407;SDS011;4241;48.452;9.216;2023-06-04T13:14:47;504.00;;;362.10;;
8407;SDS011;4241;48.452;9.216;2023-06-04T13:17:14;501.53;;;351.77;;
8407;SDS011;4241;48.452;9.216;2023-06-04T13:19:41;502.47;;;355.40;;
8407;SDS011;4241;48.452;9.216;2023-06-04T13:22:07;506.10;;;360.97;;
8407;SDS011;4241;48.452;9.216;2023-06-04T13:24:35;501.30;;;357.00;;
8407;SDS011;4241;48.452;9.216;2023-06-04T13:27:02;503.73;;;357.47;;
8407;SDS011;4241;48.452;9.216;2023-06-04T13:29:29;504.20;;;356.50;;
8407;SDS011;4241;48.452;9.216;2023-06-04T13:32:00;499.90;;;348.23;;
8407;SDS011;4241;48.452;9.216;2023-06-04T13:34:26;501.53;;;348.83;;
8407;SDS011;4241;48.452;9.216;2023-06-04T13:36:53;503.73;;;352.60;;
8407;SDS011;4241;48.452;9.216;2023-06-04T13:39:21;499.90;;;345.97;;
8407;SDS011;4241;48.452;9.216;2023-06-04T13:41:47;502.17;;;350.83;;
8407;SDS011;4241;48.452;9.216;2023-06-04T13:44:14;501.93;;;358.53;;
8407;SDS011;4241;48.452;9.216;2023-06-04T13:46:41;501.70;;;353.17;;
8407;SDS011;4241;48.452;9.216;2023-06-04T13:49:09;501.50;;;357.10;;
8407;SDS011;4241;48.452;9.216;2023-06-04T13:51:36;500.90;;;353.43;;
8407;SDS011;4241;48.452;9.216;2023-06-04T13:54:03;501.80;;;353.37;;
8407;SDS011;4241;48.452;9.216;2023-06-04T13:56:30;506.57;;;358.27;;
8407;SDS011;4241;48.452;9.216;2023-06-04T13:58:56;501.27;;;350.93;;
8407;SDS011;4241;48.452;9.216;2023-06-04T14:01:23;501.73;;;356.53;;
8407;SDS011;4241;48.452;9.216;2023-06-04T14:03:50;503.00;;;353.87;;
8407;SDS011;4241;48.452;9.216;2023-06-04T14:06:18;502.63;;;356.87;;
8407;SDS011;4241;48.452;9.216;2023-06-04T14:08:45;504.07;;;355.57;;
8407;SDS011;4241;48.452;9.216;2023-06-04T14:11:12;500.37;;;349.27;;
8407;SDS011;4241;48.452;9.216;2023-06-04T14:13:39;501.63;;;356.27;;
8407;SDS011;4241;48.452;9.216;2023-06-04T14:16:06;500.60;;;352.57;;
8407;SDS011;4241;48.452;9.216;2023-06-04T14:18:33;501.63;;;353.17;;
8407;SDS011;4241;48.452;9.216;2023-06-04T14:21:00;506.10;;;359.60;;
8407;SDS011;4241;48.452;9.216;2023-06-04T14:23:28;502.40;;;356.73;;